Time;durP1;ratioP1;P1;durP2;ratioP2;P2;SDS_P1;SDS_P2;PMS_P1;PMS_P2;Temp;Humidity;BMP_temperature;BMP_pressure;BME280_temperature;BME280_humidity;BME280_pressure;Samples;Min_cycle;Max_cycle;Signal;HPM_P1;HPM_P2
2023/12/04 00:00:29;;;;;;;34.47;18.95;;;;;;;-0.76;72.17;100327.69;5013637;28;20046;-81
2023/12/04 00:03:14;;;;;;;53.65;24.08;;;;;;;-0.75;72.44;100329.34;5018002;28;20050;-82
2023/12/04 00:05:59;;;;;;;36.22;19.48;;;;;;;-0.83;73.44;100321.34;5020122;28;20046;-82
2023/12/04 00:08:45;;;;;;;39.42;20.15;;;;;;;-0.81;72.93;100335.09;5020231;28;20479;-80
2023/12/04 00:11:32;;;;;;;40.78;20.83;;;;;;;-0.78;73.20;100331.41;5019133;28;20046;-82
2023/12/04 00:14:17;;;;;;;44.17;20.92;;;;;;;-0.86;73.06;100326.00;5019463;28;20050;-82
2023/12/04 00:17:03;;;;;;;41.75;19.92;;;;;;;-0.87;72.53;100340.84;5020130;28;20042;-82
2023/12/04 00:19:48;;;;;;;55.85;23.10;;;;;;;-0.90;73.38;100340.25;5019698;28;20384;-83
2023/12/04 00:22:33;;;;;;;42.92;21.80;;;;;;;-0.90;72.87;100340.25;5019157;28;20392;-80
2023/12/04 00:25:18;;;;;;;53.72;24.25;;;;;;;-0.94;73.92;100340.53;5032973;28;20476;-82
2023/12/04 00:28:05;;;;;;;53.15;25.65;;;;;;;-0.95;74.59;100344.06;5020158;28;20070;-82
2023/12/04 00:30:51;;;;;;;39.97;22.50;;;;;;;-0.98;74.61;100346.09;5020347;28;20049;-80
2023/12/04 00:33:36;;;;;;;44.75;21.73;;;;;;;-0.89;73.51;100349.75;5025521;28;20484;-81
2023/12/04 00:36:22;;;;;;;40.70;20.70;;;;;;;-0.95;73.46;100359.72;4998287;28;20038;-80
2023/12/04 00:39:07;;;;;;;45.65;21.75;;;;;;;-0.95;73.28;100349.28;5026652;28;20481;-80
2023/12/04 00:41:54;;;;;;;41.55;20.67;;;;;;;-0.94;74.33;100356.19;5012029;28;20053;-81
2023/12/04 00:44:40;;;;;;;41.45;22.15;;;;;;;-0.93;73.73;100354.41;5019976;28;20053;-81
2023/12/04 00:47:25;;;;;;;41.92;20.75;;;;;;;-1.07;73.56;100345.09;5019969;28;20045;-80
2023/12/04 00:50:11;;;;;;;42.22;21.60;;;;;;;-0.94;74.13;100361.41;5012087;28;20042;-79
2023/12/04 00:52:56;;;;;;;36.42;19.35;;;;;;;-0.96;74.48;100368.50;5012710;28;20400;-80
2023/12/04 00:55:42;;;;;;;35.63;19.38;;;;;;;-0.94;73.67;100358.78;5019368;28;20046;-82
2023/12/04 00:58:27;;;;;;;40.40;22.52;;;;;;;-0.89;73.13;100360.19;5021788;28;20042;-79
2023/12/04 01:01:12;;;;;;;40.90;21.55;;;;;;;-0.93;73.26;100363.03;5028951;28;20042;-79
2023/12/04 01:04:00;;;;;;;44.42;22.55;;;;;;;-0.93;73.37;100367.44;5033627;28;20045;-79
2023/12/04 01:06:46;;;;;;;49.10;24.05;;;;;;;-0.91;73.25;100362.06;5020092;28;20049;-82
2023/12/04 01:09:35;;;;;;;43.33;23.27;;;;;;;-0.90;73.01;100346.31;5034671;28;20426;-81
2023/12/04 01:12:22;;;;;;;39.13;21.55;;;;;;;-0.89;72.29;100355.78;5028556;28;20038;-82
2023/12/04 01:15:07;;;;;;;44.22;22.83;;;;;;;-0.90;73.01;100358.53;5024282;28;20054;-83
2023/12/04 01:17:52;;;;;;;46.95;21.52;;;;;;;-1.04;72.73;100350.03;5027277;28;20030;-81
2023/12/04 01:20:38;;;;;;;38.55;20.25;;;;;;;-1.05;72.95;100361.44;5015479;28;20479;-81
2023/12/04 01:23:23;;;;;;;49.97;23.02;;;;;;;-1.11;73.07;100356.72;5022039;28;20038;-81
2023/12/04 01:26:10;;;;;;;59.60;26.25;;;;;;;-1.12;74.43;100356.88;5015320;28;20046;-83
2023/12/04 01:28:55;;;;;;;62.22;27.20;;;;;;;-1.21;73.18;100348.03;5008309;28;20038;-80
2023/12/04 01:31:41;;;;;;;53.13;25.08;;;;;;;-1.39;73.58;100345.13;5016562;28;20496;-81
2023/12/04 01:34:26;;;;;;;62.03;27.25;;;;;;;-1.36;74.31;100357.09;5016437;28;20041;-83
2023/12/04 01:37:12;;;;;;;52.85;25.13;;;;;;;-1.32;73.60;100361.94;5016098;28;20046;-82
2023/12/04 01:39:57;;;;;;;50.65;25.17;;;;;;;-1.41;73.60;100358.31;5016354;28;20392;-81
2023/12/04 01:42:43;;;;;;;55.28;25.48;;;;;;;-1.56;75.22;100340.47;5028841;28;20042;-81
2023/12/04 01:45:28;;;;;;;50.75;24.95;;;;;;;-1.66;74.61;100345.56;5016043;28;20054;-80
2023/12/04 01:48:15;;;;;;;53.75;26.65;;;;;;;-1.69;74.91;100344.06;5015921;28;20045;-80
2023/12/04 01:51:05;;;;;;;53.22;26.60;;;;;;;-1.74;74.83;100350.59;5007884;28;20050;-79
2023/12/04 01:53:51;;;;;;;70.82;32.47;;;;;;;-1.83;76.34;100335.69;5014865;28;20042;-81
2023/12/04 01:56:37;;;;;;;69.07;32.95;;;;;;;-1.82;76.45;100347.75;5014869;28;20484;-80
2023/12/04 01:59:23;;;;;;;67.60;30.30;;;;;;;-1.87;77.29;100343.75;5021907;28;20480;-82
2023/12/04 02:02:08;;;;;;;67.30;32.95;;;;;;;-1.88;76.99;100336.91;5015799;28;20045;-82
2023/12/04 02:04:57;;;;;;;59.33;29.67;;;;;;;-1.91;77.50;100339.75;5014804;28;20046;-82
2023/12/04 02:07:43;;;;;;;59.47;29.98;;;;;;;-2.02;77.43;100329.34;5020943;28;20042;-82
2023/12/04 02:10:28;;;;;;;59.22;29.63;;;;;;;-2.02;79.05;100342.38;5014616;28;20049;-81
2023/12/04 02:13:13;;;;;;;60.33;28.73;;;;;;;-2.13;78.46;100340.63;5015518;28;20042;-81
2023/12/04 02:16:06;;;;;;;56.70;28.40;;;;;;;-2.15;79.05;100326.06;5021326;28;20061;-81
2023/12/04 02:18:52;;;;;;;46.05;25.83;;;;;;;-2.22;79.27;100325.72;5014909;28;20399;-81
2023/12/04 02:21:38;;;;;;;68.47;32.53;;;;;;;-2.10;79.36;100340.38;5028512;28;20054;-81
2023/12/04 02:24:24;;;;;;;81.85;37.00;;;;;;;-2.17;79.89;100330.56;5014274;28;20049;-81
2023/12/04 02:27:18;;;;;;;52.28;28.83;;;;;;;-2.13;78.55;100337.16;5013030;28;20050;-81
2023/12/04 02:30:07;;;;;;;52.47;25.90;;;;;;;-2.09;79.52;100338.59;5014513;28;20471;-83
2023/12/04 02:32:53;;;;;;;63.90;30.15;;;;;;;-2.16;79.76;100333.06;5028187;28;20042;-81
2023/12/04 02:35:40;;;;;;;62.80;30.27;;;;;;;-2.09;79.81;100341.22;5014384;28;20476;-83
2023/12/04 02:38:25;;;;;;;78.70;36.15;;;;;;;-2.23;79.93;100339.66;5014331;28;20046;-82
2023/12/04 02:41:12;;;;;;;86.28;36.72;;;;;;;-2.34;79.94;100337.91;5013940;28;20045;-81
2023/12/04 02:43:57;;;;;;;95.55;37.80;;;;;;;-2.38;80.31;100339.09;5020428;28;20467;-81
2023/12/04 02:46:44;;;;;;;77.75;33.60;;;;;;;-2.47;81.14;100336.38;5013902;28;20403;-81
2023/12/04 02:49:29;;;;;;;90.45;36.13;;;;;;;-2.54;81.22;100343.00;5015062;28;20053;-79
2023/12/04 02:52:14;;;;;;;81.65;34.08;;;;;;;-2.57;80.87;100344.91;5014701;28;20045;-81
2023/12/04 02:55:01;;;;;;;71.03;33.47;;;;;;;-2.58;80.55;100345.00;5000348;28;20049;-83
2023/12/04 02:57:47;;;;;;;73.10;32.53;;;;;;;-2.41;80.88;100354.97;5014800;28;20053;-82
2023/12/04 03:00:32;;;;;;;67.80;32.03;;;;;;;-2.41;81.00;100352.34;5020238;28;20046;-82
2023/12/04 03:03:17;;;;;;;47.55;25.48;;;;;;;-2.37;80.76;100355.56;5027195;28;20038;-81
2023/12/04 03:06:03;;;;;;;54.28;27.13;;;;;;;-2.43;80.46;100361.22;5013560;28;20050;-80
2023/12/04 03:08:48;;;;;;;55.20;27.02;;;;;;;-2.49;80.83;100359.91;5014558;28;20046;-83
2023/12/04 03:11:34;;;;;;;48.78;27.77;;;;;;;-2.46;81.38;100369.28;5013947;28;20042;-83
2023/12/04 03:14:19;;;;;;;48.33;27.20;;;;;;;-2.56;81.57;100356.97;5014636;28;20042;-82
2023/12/04 03:17:04;;;;;;;57.45;30.75;;;;;;;-2.62;81.33;100367.84;5006216;28;20046;-80
2023/12/04 03:19:49;;;;;;;48.58;27.58;;;;;;;-2.48;81.88;100373.75;5020818;28;20500;-82
2023/12/04 03:22:38;;;;;;;49.55;27.60;;;;;;;-2.39;80.25;100373.06;5013582;28;20049;-83
2023/12/04 03:25:23;;;;;;;43.75;23.70;;;;;;;-2.41;80.12;100378.41;5014326;28;20479;-83
2023/12/04 03:28:09;;;;;;;33.95;19.25;;;;;;;-2.51;81.58;100376.59;5033628;28;20391;-80
2023/12/04 03:30:55;;;;;;;38.50;20.83;;;;;;;-2.59;80.97;100369.38;5014118;28;20042;-80
2023/12/04 03:33:41;;;;;;;48.58;23.92;;;;;;;-2.69;81.78;100373.66;5014317;28;20053;-81
2023/12/04 03:36:26;;;;;;;45.30;23.58;;;;;;;-2.68;81.31;100391.72;5014035;28;20046;-82
2023/12/04 03:39:12;;;;;;;40.40;21.88;;;;;;;-2.75;80.43;100385.34;5014264;28;20050;-80
2023/12/04 03:41:58;;;;;;;44.45;20.92;;;;;;;-2.65;81.17;100395.88;5020784;28;20042;-82
2023/12/04 03:44:44;;;;;;;40.85;20.77;;;;;;;-2.74;81.25;100391.38;5013875;28;20042;-80
2023/12/04 03:47:30;;;;;;;41.22;20.27;;;;;;;-2.87;81.13;100378.44;5014080;28;20483;-83
2023/12/04 03:50:16;;;;;;;42.58;20.95;;;;;;;-2.86;81.35;100393.94;5013487;28;20396;-82
2023/12/04 03:53:02;;;;;;;39.20;20.20;;;;;;;-2.96;81.22;100381.75;5013877;28;20046;-83
2023/12/04 03:55:48;;;;;;;40.70;20.27;;;;;;;-2.94;82.53;100401.50;5013855;28;20046;-83
2023/12/04 03:58:33;;;;;;;45.15;21.67;;;;;;;-2.96;81.84;100390.38;5014022;28;20038;-83
2023/12/04 04:01:20;;;;;;;50.22;23.77;;;;;;;-3.03;82.01;100400.41;5012816;28;20097;-81
2023/12/04 04:04:06;;;;;;;40.58;22.00;;;;;;;-3.11;81.76;100392.31;5012797;28;20496;-81
2023/12/04 04:06:52;;;;;;;35.13;18.08;;;;;;;-3.15;82.29;100392.69;5013578;28;20045;-81
2023/12/04 04:09:38;;;;;;;33.47;17.73;;;;;;;-3.24;83.32;100396.78;5019684;28;20046;-82
2023/12/04 04:12:24;;;;;;;36.83;17.85;;;;;;;-3.28;83.22;100395.34;5019308;28;20037;-81
2023/12/04 04:15:14;;;;;;;36.40;18.95;;;;;;;-3.40;82.59;100409.25;5013453;28;20046;-81
2023/12/04 04:17:59;;;;;;;36.03;18.40;;;;;;;-3.53;83.86;100404.09;5013576;28;20037;-81
2023/12/04 04:20:45;;;;;;;83.65;30.60;;;;;;;-3.60;83.87;100402.88;5019186;28;20049;-80
2023/12/04 04:23:30;;;;;;;71.85;28.98;;;;;;;-3.67;83.66;100394.69;5013980;28;20049;-82
2023/12/04 04:26:17;;;;;;;82.30;36.20;;;;;;;-3.70;84.55;100391.47;5020257;28;20045;-81
2023/12/04 04:29:03;;;;;;;58.67;28.52;;;;;;;-3.70;84.83;100401.88;5012728;28;20046;-83
2023/12/04 04:31:48;;;;;;;50.50;25.02;;;;;;;-3.79;84.49;100404.19;5012548;28;20046;-80
2023/12/04 04:34:35;;;;;;;42.72;21.70;;;;;;;-3.57;85.09;100403.50;5005258;28;20480;-82
2023/12/04 04:37:19;;;;;;;48.67;24.77;;;;;;;-3.54;83.99;100407.63;5013316;28;20042;-82
2023/12/04 04:40:07;;;;;;;40.53;20.52;;;;;;;-3.60;84.41;100405.50;5013422;28;20488;-82
2023/12/04 04:42:53;;;;;;;41.25;20.92;;;;;;;-3.72;84.43;100395.03;5013431;28;20042;-82
2023/12/04 04:45:38;;;;;;;43.53;22.55;;;;;;;-3.80;84.43;100391.31;5013593;28;20049;-83
2023/12/04 04:48:24;;;;;;;35.55;18.23;;;;;;;-3.82;84.80;100403.59;5013149;28;20038;-81
2023/12/04 04:51:10;;;;;;;31.75;16.42;;;;;;;-3.90;84.14;100401.50;5023044;28;20045;-81
2023/12/04 04:53:55;;;;;;;29.92;16.20;;;;;;;-3.99;84.34;100394.38;5022541;28;20045;-81
2023/12/04 04:56:41;;;;;;;43.15;19.58;;;;;;;-3.82;84.25;100409.59;5018617;28;20049;-82
2023/12/04 04:59:30;;;;;;;29.35;16.77;;;;;;;-3.76;83.73;100419.56;5017081;28;20049;-81
2023/12/04 05:02:15;;;;;;;29.55;16.38;;;;;;;-3.80;82.70;100402.50;5008635;28;20498;-83
2023/12/04 05:05:04;;;;;;;37.88;18.45;;;;;;;-3.73;81.89;100416.75;5017108;28;20476;-83
2023/12/04 05:07:50;;;;;;;41.80;23.42;;;;;;;-3.81;83.66;100431.22;5008436;28;20491;-83
2023/12/04 05:10:35;;;;;;;49.25;25.85;;;;;;;-3.88;82.99;100419.59;5029550;28;20046;-82
2023/12/04 05:13:21;;;;;;;48.67;25.17;;;;;;;-3.94;83.66;100422.63;5016799;28;20415;-81
2023/12/04 05:16:07;;;;;;;50.10;26.42;;;;;;;-4.09;83.75;100414.13;5016456;28;20038;-86
2023/12/04 05:18:53;;;;;;;49.63;26.80;;;;;;;-4.09;84.77;100434.91;5016647;28;20046;-81
2023/12/04 05:21:38;;;;;;;47.88;26.75;;;;;;;-4.23;84.95;100433.25;5016658;28;20053;-83
2023/12/04 05:24:24;;;;;;;50.40;29.05;;;;;;;-4.24;85.05;100439.38;5008336;28;20042;-82
2023/12/04 05:27:10;;;;;;;69.18;33.00;;;;;;;-4.23;85.30;100428.91;5015872;28;20050;-81
2023/12/04 05:29:55;;;;;;;56.75;30.67;;;;;;;-4.38;85.33;100416.97;5022851;28;20038;-82
2023/12/04 05:32:41;;;;;;;74.68;35.03;;;;;;;-4.26;85.96;100438.63;5009320;28;20049;-81
2023/12/04 05:35:27;;;;;;;72.07;34.95;;;;;;;-4.11;85.38;100429.78;5016457;28;20038;-81
2023/12/04 05:38:12;;;;;;;77.10;38.95;;;;;;;-4.07;85.55;100435.63;5021613;28;20407;-80
2023/12/04 05:40:59;;;;;;;157.18;62.60;;;;;;;-4.11;85.39;100434.16;5016010;28;20042;-81
2023/12/04 05:43:45;;;;;;;149.38;56.08;;;;;;;-4.20;85.52;100439.06;5021654;28;20058;-81
2023/12/04 05:46:32;;;;;;;182.90;63.50;;;;;;;-4.26;85.24;100436.91;5021635;28;20050;-80
2023/12/04 05:49:16;;;;;;;225.82;78.60;;;;;;;-4.35;85.24;100437.53;5016071;28;20050;-82
2023/12/04 05:52:02;;;;;;;119.97;44.97;;;;;;;-4.44;85.28;100432.97;5015998;28;20388;-81
2023/12/04 05:54:49;;;;;;;70.85;31.52;;;;;;;-4.46;85.75;100434.81;5021616;28;20050;-82
2023/12/04 05:57:35;;;;;;;49.95;26.63;;;;;;;-4.46;85.44;100434.81;5015260;28;20057;-80
2023/12/04 06:00:21;;;;;;;43.47;23.23;;;;;;;-4.46;85.44;100440.00;5015369;28;20050;-82
2023/12/04 06:03:07;;;;;;;47.05;26.13;;;;;;;-4.38;85.31;100434.31;5018290;28;20387;-80
2023/12/04 06:05:52;;;;;;;70.55;31.27;;;;;;;-4.29;85.98;100441.47;5024556;28;20050;-82
2023/12/04 06:08:38;;;;;;;70.53;29.45;;;;;;;-4.21;85.16;100444.34;5015578;28;20050;-82
2023/12/04 06:11:23;;;;;;;55.00;24.00;;;;;;;-3.94;84.54;100446.81;5014300;28;20053;-83
2023/12/04 06:14:10;;;;;;;47.95;21.20;;;;;;;-3.76;84.07;100426.50;5005531;28;20054;-82
2023/12/04 06:16:56;;;;;;;58.92;23.60;;;;;;;-3.57;81.70;100445.06;5013996;28;20050;-81
2023/12/04 06:19:41;;;;;;;96.63;32.78;;;;;;;-3.57;81.46;100449.44;5015269;28;20050;-83
2023/12/04 06:22:27;;;;;;;178.52;56.72;;;;;;;-3.52;81.69;100436.94;5007399;28;20054;-82
2023/12/04 06:25:15;;;;;;;230.80;78.75;;;;;;;-3.52;80.44;100436.94;5021204;28;20392;-82
2023/12/04 06:28:03;;;;;;;257.13;94.90;;;;;;;-3.47;81.33;100439.22;5020889;28;20045;-82
2023/12/04 06:30:51;;;;;;;271.98;97.88;;;;;;;-3.53;79.62;100415.31;5015498;28;20034;-82
2023/12/04 06:33:38;;;;;;;283.13;101.10;;;;;;;-3.40;78.85;100443.03;5014612;28;20049;-83
2023/12/04 06:36:24;;;;;;;253.70;94.15;;;;;;;-2.81;80.52;100440.44;5014112;28;20057;-82
2023/12/04 06:39:13;;;;;;;253.82;93.50;;;;;;;-2.35;78.56;100439.56;5006936;28;20037;-82
2023/12/04 06:42:00;;;;;;;241.82;91.25;;;;;;;-1.69;76.04;100424.88;5013761;28;20050;-82
2023/12/04 06:44:46;;;;;;;150.23;55.08;;;;;;;-1.22;70.94;100428.06;5006668;28;20050;-82
2023/12/04 06:47:34;;;;;;;134.63;46.70;;;;;;;-1.10;69.99;100438.44;5013974;28;20050;-82
2023/12/04 06:50:20;;;;;;;69.32;30.75;;;;;;;-1.30;69.33;100421.81;5023015;28;20049;-83
2023/12/04 06:53:06;;;;;;;94.13;37.92;;;;;;;-1.24;69.09;100422.13;5023009;28;20034;-82
2023/12/04 06:55:52;;;;;;;44.40;21.00;;;;;;;-1.06;68.81;100425.03;5023133;28;20057;-82
2023/12/04 06:58:37;;;;;;;31.27;16.85;;;;;;;-0.87;68.49;100433.97;5022127;28;20033;-82
2023/12/04 07:01:23;;;;;;;42.88;21.30;;;;;;;-1.02;68.09;100439.47;5022158;28;20053;-82
2023/12/04 07:04:11;;;;;;;54.95;27.38;;;;;;;-1.09;69.76;100434.91;5008617;28;20058;-81
2023/12/04 07:07:00;;;;;;;51.60;28.58;;;;;;;-1.37;70.72;100416.25;5022380;28;20042;-82
2023/12/04 07:09:46;;;;;;;50.17;26.33;;;;;;;-1.47;70.97;100424.00;5021675;28;20050;-82
2023/12/04 07:12:31;;;;;;;46.20;25.60;;;;;;;-1.45;71.41;100435.09;5015919;28;20046;-83
2023/12/04 07:15:17;;;;;;;38.47;21.02;;;;;;;-1.36;71.03;100433.56;5020328;28;20037;-82
2023/12/04 07:18:03;;;;;;;40.72;23.25;;;;;;;-1.26;70.68;100429.25;5000106;28;20038;-81
2023/12/04 07:20:49;;;;;;;44.80;24.42;;;;;;;-1.28;71.21;100435.56;5020783;28;20053;-81
2023/12/04 07:23:35;;;;;;;50.35;23.75;;;;;;;-1.31;70.54;100431.41;5019843;28;20483;-82
2023/12/04 07:26:21;;;;;;;45.95;23.65;;;;;;;-1.46;71.18;100422.22;5013289;28;20407;-81
2023/12/04 07:29:07;;;;;;;86.20;41.60;;;;;;;-1.36;71.45;100424.91;5019697;28;20049;-81
2023/12/04 07:31:52;;;;;;;61.20;28.35;;;;;;;-1.43;71.64;100414.97;5013739;28;20046;-81
2023/12/04 07:34:38;;;;;;;49.33;27.15;;;;;;;-1.35;71.13;100431.75;5006080;28;20037;-81
2023/12/04 07:37:24;;;;;;;52.03;26.85;;;;;;;-1.45;71.42;100423.84;5014137;28;20042;-82
2023/12/04 07:40:10;;;;;;;82.55;41.45;;;;;;;-1.31;71.98;100428.81;5013472;28;20472;-81
2023/12/04 07:42:56;;;;;;;58.42;28.95;;;;;;;-1.31;71.24;100438.41;5014315;28;20046;-81
2023/12/04 07:45:42;;;;;;;52.40;27.13;;;;;;;-1.38;71.88;100429.41;5014032;28;20046;-80
2023/12/04 07:48:29;;;;;;;53.78;28.52;;;;;;;-1.04;72.01;100433.53;5005817;28;20400;-82
2023/12/04 07:51:16;;;;;;;43.28;25.50;;;;;;;-0.90;70.71;100427.22;5013663;28;20049;-83
2023/12/04 07:54:01;;;;;;;49.17;26.25;;;;;;;-0.72;71.25;100427.47;5019455;28;20054;-82
2023/12/04 07:56:48;;;;;;;58.15;29.27;;;;;;;-0.73;69.67;100410.13;5013565;28;20050;-81
2023/12/04 07:59:34;;;;;;;51.95;26.55;;;;;;;-0.60;70.82;100420.38;5026345;28;20375;-81
2023/12/04 08:02:20;;;;;;;43.42;24.08;;;;;;;-0.56;69.50;100427.84;5014119;28;20041;-81
2023/12/04 08:05:07;;;;;;;58.63;28.85;;;;;;;-0.43;69.40;100416.38;5014104;28;20042;-81
2023/12/04 08:07:54;;;;;;;46.22;23.92;;;;;;;-0.43;68.74;100411.97;5013489;28;20037;-83
2023/12/04 08:10:40;;;;;;;49.50;26.25;;;;;;;-0.37;69.80;100426.31;5013772;28;20395;-82
2023/12/04 08:13:26;;;;;;;53.03;27.13;;;;;;;-0.39;70.19;100425.59;5018981;28;20050;-80
2023/12/04 08:16:15;;;;;;;49.95;26.58;;;;;;;-0.28;69.08;100412.47;5020028;28;20049;-80
2023/12/04 08:19:00;;;;;;;48.65;27.08;;;;;;;-0.03;68.87;100417.25;5012664;28;20034;-80
2023/12/04 08:21:46;;;;;;;56.42;27.55;;;;;;;0.10;69.53;100410.97;5019164;28;20050;-79
2023/12/04 08:24:32;;;;;;;53.55;28.77;;;;;;;0.08;68.77;100405.84;5015730;28;20530;-77
2023/12/04 08:27:18;;;;;;;47.25;24.48;;;;;;;0.18;68.36;100403.25;5017539;28;20045;-81
2023/12/04 08:30:05;;;;;;;55.97;28.95;;;;;;;0.35;68.43;100404.41;5017589;28;20117;-78
2023/12/04 08:32:50;;;;;;;53.65;25.05;;;;;;;0.46;68.80;100399.88;5023086;28;20048;-80
2023/12/04 08:35:36;;;;;;;57.55;28.77;;;;;;;0.59;67.33;100397.00;5017855;28;20422;-83
2023/12/04 08:38:21;;;;;;;43.50;24.08;;;;;;;0.70;66.66;100401.28;5017596;28;20132;-81
2023/12/04 08:41:07;;;;;;;41.65;22.73;;;;;;;0.56;66.25;100404.28;5025667;28;20057;-80
2023/12/04 08:43:54;;;;;;;37.72;21.73;;;;;;;0.67;67.26;100404.19;5017659;28;20450;-78
2023/12/04 08:46:41;;;;;;;37.28;21.90;;;;;;;0.69;66.58;100402.25;5018247;28;20060;-79
2023/12/04 08:49:27;;;;;;;38.78;22.73;;;;;;;0.87;67.43;100403.19;5017136;28;20045;-83
2023/12/04 08:52:12;;;;;;;27.35;16.67;;;;;;;0.94;65.10;100403.50;5017742;28;20104;-83
2023/12/04 08:54:58;;;;;;;35.55;20.45;;;;;;;0.99;65.15;100395.22;5015885;28;20096;-78
2023/12/04 08:57:42;;;;;;;39.30;20.15;;;;;;;0.89;65.20;100396.03;5016330;28;20060;-82
2023/12/04 09:00:29;;;;;;;36.90;20.75;;;;;;;1.11;65.47;100388.88;5022512;28;20067;-83
2023/12/04 09:03:15;;;;;;;27.85;16.58;;;;;;;1.03;64.77;100392.16;5022605;28;20064;-81
2023/12/04 09:06:00;;;;;;;43.53;25.98;;;;;;;0.98;65.09;100380.47;5022464;28;20061;-79
2023/12/04 09:08:47;;;;;;;35.90;17.77;;;;;;;1.15;64.32;100385.00;5021932;28;20057;-78
2023/12/04 09:11:33;;;;;;;32.67;16.75;;;;;;;1.20;64.13;100377.56;5001919;28;20072;-78
2023/12/04 09:14:22;;;;;;;23.55;13.93;;;;;;;1.27;62.74;100378.63;5022286;28;20082;-78
2023/12/04 09:17:07;;;;;;;29.48;16.48;;;;;;;1.28;62.40;100377.66;5015520;28;20060;-79
2023/12/04 09:19:52;;;;;;;19.20;10.15;;;;;;;1.07;61.91;100366.56;5015472;28;20199;-82
2023/12/04 09:22:40;;;;;;;22.17;12.15;;;;;;;1.09;61.11;100352.34;5021997;28;20049;-79
2023/12/04 09:25:25;;;;;;;20.52;12.75;;;;;;;1.33;61.02;100343.19;5021858;28;20060;-82
2023/12/04 09:28:11;;;;;;;21.27;11.77;;;;;;;1.45;59.60;100357.78;5016518;28;20065;-76
2023/12/04 09:30:56;;;;;;;22.98;13.55;;;;;;;1.39;59.30;100351.31;5016253;28;20048;-79
2023/12/04 09:33:42;;;;;;;21.38;12.15;;;;;;;1.31;60.52;100348.56;5016172;28;20053;-81
2023/12/04 09:36:28;;;;;;;24.30;13.60;;;;;;;1.38;60.13;100354.09;5014786;28;20167;-79
2023/12/04 09:39:14;;;;;;;26.33;14.18;;;;;;;1.26;60.61;100326.41;5015388;28;20052;-78
2023/12/04 09:41:59;;;;;;;18.13;11.00;;;;;;;1.47;60.97;100341.91;5016237;28;20056;-78
2023/12/04 09:44:48;;;;;;;12.35;7.40;;;;;;;1.31;58.83;100332.84;5015245;28;20057;-78
2023/12/04 09:47:34;;;;;;;19.90;12.82;;;;;;;1.45;59.71;100334.19;5016169;28;20068;-81
2023/12/04 09:50:22;;;;;;;18.45;10.85;;;;;;;1.52;59.58;100329.22;5016626;28;20396;-80
2023/12/04 09:53:11;;;;;;;22.60;13.40;;;;;;;1.47;59.40;100320.94;5015941;28;20087;-81
2023/12/04 09:55:57;;;;;;;19.88;11.85;;;;;;;1.54;58.47;100324.66;5014290;28;20399;-79
2023/12/04 09:58:44;;;;;;;17.02;10.57;;;;;;;1.64;59.09;100325.44;5015610;28;20160;-80
2023/12/04 10:01:30;;;;;;;16.90;10.75;;;;;;;1.72;58.57;100315.03;5028553;28;20514;-80
2023/12/04 10:04:16;;;;;;;22.33;11.40;;;;;;;1.68;57.65;100305.00;5015892;28;20399;-78
2023/12/04 10:07:01;;;;;;;18.38;10.63;;;;;;;1.81;57.10;100301.06;5014885;28;20041;-83
2023/12/04 10:09:47;;;;;;;20.55;10.73;;;;;;;1.87;57.67;100301.44;5015302;28;20073;-79
2023/12/04 10:12:35;;;;;;;31.90;17.45;;;;;;;1.79;57.00;100286.47;5015315;28;20053;-79
2023/12/04 10:15:21;;;;;;;17.33;10.88;;;;;;;1.88;57.21;100284.75;5015320;28;20073;-78
2023/12/04 10:18:23;;;;;;;15.20;8.32;;;;;;;2.02;55.71;100282.44;5015579;28;20041;-81
2023/12/04 10:21:09;;;;;;;15.23;9.13;;;;;;;1.95;55.29;100263.03;5014269;28;20053;-77
2023/12/04 10:23:54;;;;;;;15.95;9.73;;;;;;;1.78;55.79;100267.28;5020701;28;20459;-77
2023/12/04 10:26:51;;;;;;;9.95;6.47;;;;;;;1.74;54.72;100252.81;5015454;28;20053;-81
2023/12/04 10:29:52;;;;;;;13.80;8.75;;;;;;;2.07;55.45;100264.47;5014172;28;20045;-80
2023/12/04 10:32:41;;;;;;;14.40;9.07;;;;;;;2.07;54.49;100261.03;5014410;28;20053;-79
2023/12/04 10:35:32;;;;;;;14.35;8.13;;;;;;;2.14;54.16;100254.22;5015272;28;20798;-80
2023/12/04 10:38:18;;;;;;;12.75;7.95;;;;;;;2.15;54.27;100247.97;5015354;28;20048;-79
2023/12/04 10:41:16;;;;;;;12.75;7.95;;;;;;;2.16;55.22;100252.25;5015165;28;20053;-79
2023/12/04 10:44:02;;;;;;;10.50;6.35;;;;;;;2.25;54.82;100248.72;5015314;28;20052;-77
2023/12/04 10:46:47;;;;;;;14.50;9.10;;;;;;;2.32;54.42;100238.47;5014221;28;20057;-81
2023/12/04 10:49:33;;;;;;;12.85;7.88;;;;;;;2.49;53.18;100228.91;5027577;28;20530;-81
2023/12/04 10:52:21;;;;;;;12.35;7.32;;;;;;;2.54;53.46;100230.13;5013898;28;20052;-79
2023/12/04 10:55:10;;;;;;;20.90;10.85;;;;;;;2.59;53.49;100223.56;5014781;28;20053;-81
2023/12/04 10:57:55;;;;;;;12.82;7.68;;;;;;;2.67;52.76;100221.03;5013297;28;20061;-81
2023/12/04 11:00:45;;;;;;;10.07;6.05;;;;;;;2.71;52.23;100225.78;5013980;28;20068;-77
2023/12/04 11:03:48;;;;;;;13.48;7.50;;;;;;;2.70;52.47;100216.28;5013465;28;20548;-80
2023/12/04 11:06:35;;;;;;;9.57;5.78;;;;;;;2.53;52.90;100222.38;5014678;28;20061;-77
2023/12/04 11:09:26;;;;;;;12.48;7.97;;;;;;;2.70;53.68;100213.66;5014496;28;20045;-79
2023/12/04 11:12:14;;;;;;;7.63;4.68;;;;;;;2.87;53.21;100221.63;5015934;28;20388;-81
2023/12/04 11:15:03;;;;;;;11.70;7.15;;;;;;;2.89;51.98;100203.91;5014512;28;20048;-80
2023/12/04 11:17:53;;;;;;;13.27;8.65;;;;;;;2.93;51.72;100211.31;5015012;28;20399;-82
2023/12/04 11:20:51;;;;;;;11.13;7.00;;;;;;;2.87;50.12;100205.88;5013185;28;20052;-81
2023/12/04 11:23:38;;;;;;;13.27;6.38;;;;;;;3.02;49.75;100206.94;5014072;28;20056;-78
2023/12/04 11:26:24;;;;;;;9.07;5.70;;;;;;;3.04;49.33;100189.22;5014215;28;20077;-82
2023/12/04 11:29:12;;;;;;;14.00;6.57;;;;;;;3.10;49.53;100185.13;5012987;28;20045;-81
2023/12/04 11:31:59;;;;;;;9.07;5.78;;;;;;;3.13;49.15;100185.63;5014128;28;20053;-81
2023/12/04 11:34:50;;;;;;;8.95;4.97;;;;;;;3.17;48.17;100179.09;5013362;28;20064;-83
2023/12/04 11:37:37;;;;;;;10.23;5.82;;;;;;;3.01;48.28;100169.34;5014284;28;20056;-78
2023/12/04 11:40:23;;;;;;;8.68;4.82;;;;;;;3.11;47.38;100171.84;5013881;28;20510;-78
2023/12/04 11:43:26;;;;;;;10.15;5.47;;;;;;;3.16;48.51;100174.81;5012940;28;20048;-79
2023/12/04 11:46:11;;;;;;;13.80;5.88;;;;;;;3.25;48.55;100173.84;5014297;28;20104;-80
2023/12/04 11:49:30;;;;;;;36.90;15.75;;;;;;;3.20;49.55;100157.78;5013637;28;20057;-85
2023/12/04 11:52:16;;;;;;;64.80;20.63;;;;;;;3.30;50.58;100156.81;5020450;28;20053;-82
2023/12/04 11:55:05;;;;;;;12.10;6.80;;;;;;;3.30;49.65;100133.16;5013265;28;20045;-81
2023/12/04 11:57:51;;;;;;;12.05;6.93;;;;;;;3.24;49.36;100147.75;5018365;28;20053;-86
2023/12/04 12:00:37;;;;;;;19.70;8.85;;;;;;;3.25;49.53;100137.09;5006104;28;20056;-80
2023/12/04 12:03:22;;;;;;;15.25;8.68;;;;;;;3.15;50.71;100120.63;5019513;28;20052;-80
2023/12/04 12:06:09;;;;;;;11.77;6.43;;;;;;;3.24;50.09;100130.19;5012442;28;20045;-82
2023/12/04 12:08:56;;;;;;;15.50;8.70;;;;;;;3.35;51.36;100120.34;5026388;28;20619;-81
2023/12/04 12:11:42;;;;;;;16.05;8.57;;;;;;;3.42;51.11;100110.88;5013004;28;20052;-81
2023/12/04 12:14:29;;;;;;;28.85;13.30;;;;;;;3.47;51.42;100113.81;5012535;28;20045;-81
2023/12/04 12:17:14;;;;;;;13.88;7.07;;;;;;;3.43;51.72;100102.00;5013143;28;20057;-81
2023/12/04 12:20:00;;;;;;;18.65;9.38;;;;;;;3.41;52.38;100098.69;5013490;28;20391;-82
2023/12/04 12:22:46;;;;;;;11.05;7.53;;;;;;;3.38;52.47;100089.31;5012853;28;20068;-81
2023/12/04 12:25:32;;;;;;;11.70;6.90;;;;;;;3.44;52.56;100087.84;5012536;28;20399;-82
2023/12/04 12:28:18;;;;;;;9.88;5.30;;;;;;;3.45;53.57;100073.75;5013432;28;20090;-82
2023/12/04 12:31:05;;;;;;;18.10;10.20;;;;;;;3.43;53.73;100063.38;5012941;28;20502;-82
2023/12/04 12:33:52;;;;;;;9.75;5.45;;;;;;;3.27;53.93;100052.88;5013363;28;20421;-79
2023/12/04 12:36:38;;;;;;;11.45;6.20;;;;;;;3.34;54.55;100051.22;5013319;28;20044;-79
2023/12/04 12:39:23;;;;;;;11.25;7.03;;;;;;;3.36;54.95;100051.09;5013382;28;20041;-79
2023/12/04 12:42:12;;;;;;;13.20;7.43;;;;;;;3.42;56.32;100048.63;5013508;28;20162;-79